Lilongwe, Malawi
Current Conditions -  °F | °C
As of 6:00 PM on Friday 24 Oct 2014 (Local Time) from FWKI Reporting Station
Clear Clear  
Wind Chill: 79°   Ceiling: Unl
Heat Index: 79°   Visibility: 6mi
Dew Point: 41°   Wind: 12mph
Humidity: 26%   Direction: 90°E
Pressure: 30"   Gusts: NA
Location:  13.97°S, 33.8°E
Report Text: FWKI 241600Z 09010KT CAVOK 26/05 Q1016 NOSIG
Loading
Personal Weather Stations






























Interactive Weather Map
Tropical Storm Tracking
New forecast layout! Learn more

10-Day Weather Forecast

Advertisements
Track Severe Weather on mobile